createdAt,value
2019-05-01T00:04:09.082Z,8.93
2019-05-01T00:09:14.579Z,8.99
2019-05-01T00:14:18.932Z,8.67
2019-05-01T00:19:23.295Z,8.68
2019-05-01T00:24:27.664Z,8.76
2019-05-01T00:29:32.615Z,8.65
2019-05-01T00:34:36.997Z,8.85
2019-05-01T00:39:41.387Z,8.72
2019-05-01T00:44:45.753Z,8.65
2019-05-01T00:49:50.131Z,8.63
2019-05-01T00:55:08.457Z,8.66
2019-05-01T01:00:42.549Z,8.53
2019-05-01T01:05:37.007Z,8.60
2019-05-01T01:10:41.403Z,8.62
2019-05-01T01:15:45.784Z,8.62
2019-05-01T01:20:50.228Z,8.82
2019-05-01T01:25:55.077Z,8.68
2019-05-01T01:30:59.432Z,8.94
2019-05-01T01:36:03.891Z,8.49
2019-05-01T01:41:08.545Z,8.47
2019-05-01T01:46:20.455Z,8.59
2019-05-01T01:51:24.986Z,8.55
2019-05-01T01:56:29.435Z,8.39
2019-05-01T02:01:38.429Z,8.37
2019-05-01T02:06:42.977Z,8.50
2019-05-01T02:11:47.740Z,8.35
2019-05-01T02:16:52.130Z,8.63
2019-05-01T02:21:56.489Z,8.52
2019-05-01T02:27:19.056Z,8.70
2019-05-01T02:32:24.103Z,8.84
2019-05-01T02:37:29.771Z,8.96
2019-05-01T02:42:34.679Z,9.01
2019-05-01T02:47:39.202Z,8.93
2019-05-01T02:52:44.554Z,8.59
2019-05-01T02:57:49.501Z,8.80
2019-05-01T03:02:55.578Z,8.68
2019-05-01T03:07:59.970Z,8.47
2019-05-01T03:13:04.532Z,8.54
2019-05-01T03:18:10.604Z,8.95
2019-05-01T03:23:16.748Z,9.02
2019-05-01T03:28:22.535Z,8.87
2019-05-01T03:33:27.056Z,9.01
2019-05-01T03:38:31.470Z,9.07
2019-05-01T03:43:36.595Z,9.10
2019-05-01T03:48:41.136Z,8.87
2019-05-01T03:53:45.824Z,8.64
2019-05-01T03:58:50.364Z,9.26
2019-05-01T04:04:02.205Z,9.21
2019-05-01T04:09:07.798Z,9.10
2019-05-01T04:14:12.622Z,9.02
2019-05-01T04:19:17.088Z,8.98
2019-05-01T04:24:21.516Z,8.72
2019-05-01T04:29:27.542Z,9.13
2019-05-01T04:34:36.618Z,9.09
2019-05-01T04:39:41.163Z,9.09
2019-05-01T04:44:45.788Z,8.94
2019-05-01T04:49:50.724Z,9.14
2019-05-01T04:54:55.288Z,8.61
2019-05-01T05:00:00.126Z,9.12
2019-05-01T05:05:06.093Z,9.30
2019-05-01T05:10:10.610Z,9.18
2019-05-01T05:15:25.555Z,9.29
2019-05-01T05:20:29.996Z,9.65
2019-05-01T05:25:35.060Z,9.44
2019-05-01T05:30:41.074Z,9.53
2019-05-01T05:35:46.722Z,9.73
2019-05-01T05:40:51.462Z,9.85
2019-05-01T05:45:56.289Z,9.38
2019-05-01T05:51:08.092Z,9.83
2019-05-01T05:56:19.714Z,9.81
2019-05-01T06:01:30.144Z,9.99
2019-05-01T06:06:38.809Z,9.82
2019-05-01T06:11:54.118Z,10.31
2019-05-01T06:17:04.110Z,10.53
2019-05-01T06:22:11.603Z,10.64
2019-05-01T06:27:16.931Z,10.92
2019-05-01T06:32:21.314Z,11.18
2019-05-01T06:37:28.877Z,11.25
2019-05-01T06:42:33.258Z,11.17
2019-05-01T06:47:48.366Z,11.25
2019-05-01T06:52:52.728Z,11.37
2019-05-01T06:57:57.412Z,11.10
2019-05-01T07:03:05.894Z,11.23
2019-05-01T07:08:08.019Z,11.49
2019-05-01T07:13:12.418Z,11.81
2019-05-01T07:18:18.812Z,11.81
2019-05-01T07:23:23.188Z,12.30
2019-05-01T07:28:34.208Z,12.29
2019-05-01T07:33:35.672Z,12.63
2019-05-01T07:38:40.991Z,12.68
2019-05-01T07:44:05.361Z,12.86
2019-05-01T07:49:13.071Z,12.89
2019-05-01T07:54:16.153Z,12.77
2019-05-01T07:59:22.877Z,12.99
2019-05-01T08:04:35.773Z,12.76
2019-05-01T08:09:34.004Z,12.75
2019-05-01T08:14:38.396Z,12.61
2019-05-01T08:19:44.417Z,12.80
2019-05-01T08:24:48.816Z,12.53
2019-05-01T08:29:54.848Z,12.62
2019-05-01T08:35:02.428Z,12.88
2019-05-01T08:40:07.817Z,13.10
2019-05-01T08:45:35.721Z,13.53
2019-05-01T08:50:38.172Z,13.53
2019-05-01T08:55:45.218Z,14.18
2019-05-01T09:00:48.785Z,14.27
2019-05-01T09:05:57.463Z,14.68
2019-05-01T09:11:02.143Z,14.44
2019-05-01T09:16:06.319Z,14.64
2019-05-01T09:21:10.744Z,15.07
2019-05-01T09:26:19.621Z,15.09
2019-05-01T09:31:25.732Z,14.58
2019-05-01T09:36:30.313Z,14.65
2019-05-01T09:41:38.427Z,14.37
2019-05-01T09:46:41.336Z,14.18
2019-05-01T09:51:50.024Z,13.75
2019-05-01T09:56:54.704Z,13.89
2019-05-01T10:02:03.011Z,14.28
2019-05-01T10:07:06.429Z,14.86
2019-05-01T10:12:13.562Z,15.08
2019-05-01T10:17:22.455Z,15.52
2019-05-01T10:22:26.841Z,15.12
2019-05-01T10:27:35.743Z,15.30
2019-05-01T10:32:40.687Z,15.14
2019-05-01T10:37:48.156Z,14.98
2019-05-01T10:42:52.695Z,14.97
2019-05-01T10:47:58.666Z,15.39
2019-05-01T10:53:03.082Z,15.67
2019-05-01T10:58:07.445Z,15.69
2019-05-01T11:03:12.082Z,15.95
2019-05-01T11:08:17.381Z,15.94
2019-05-01T11:13:21.748Z,15.97
2019-05-01T11:18:26.267Z,15.95
2019-05-01T11:23:30.916Z,17.09
2019-05-01T11:28:35.348Z,16.47
2019-05-01T11:33:47.366Z,16.51
2019-05-01T11:38:59.328Z,17.02
2019-05-01T11:44:04.019Z,16.89
2019-05-01T11:49:08.410Z,16.70
2019-05-01T11:54:12.901Z,16.61
2019-05-01T11:59:18.237Z,16.83
2019-05-01T12:04:22.608Z,16.55
2019-05-01T12:09:27.965Z,17.18
2019-05-01T12:14:32.365Z,16.81
2019-05-01T12:19:36.764Z,16.39
2019-05-01T12:24:44.415Z,16.42
2019-05-01T12:29:48.794Z,16.59
2019-05-01T12:34:53.224Z,16.95
2019-05-01T12:39:57.593Z,17.12
2019-05-01T12:45:02.047Z,17.33
2019-05-01T12:50:08.843Z,17.23
2019-05-01T12:55:20.831Z,17.28
2019-05-01T13:00:46.688Z,17.45
2019-05-01T13:05:51.075Z,16.99
2019-05-01T13:10:55.447Z,17.28
2019-05-01T13:15:59.801Z,17.42
2019-05-01T13:21:04.311Z,17.67
2019-05-01T13:26:10.423Z,17.42
2019-05-01T13:31:25.816Z,17.20
2019-05-01T13:36:30.176Z,17.67
2019-05-01T13:41:34.531Z,17.88
2019-05-01T13:46:38.915Z,17.73
2019-05-01T13:51:43.329Z,17.69
2019-05-01T13:56:47.731Z,17.73
2019-05-01T14:01:52.125Z,17.83
2019-05-01T14:06:56.465Z,17.56
2019-05-01T14:12:00.829Z,17.49
2019-05-01T14:17:05.202Z,17.56
2019-05-01T14:22:27.642Z,17.78
2019-05-01T14:27:35.339Z,17.91
2019-05-01T14:32:41.611Z,17.74
2019-05-01T14:37:47.053Z,17.67
2019-05-01T14:42:51.824Z,17.73
2019-05-01T14:47:58.107Z,17.84
2019-05-01T14:53:04.367Z,17.88
2019-05-01T14:58:08.903Z,17.77
2019-05-01T15:03:13.323Z,17.85
2019-05-01T15:08:17.707Z,17.82
2019-05-01T15:13:38.403Z,17.91
2019-05-01T15:18:50.378Z,17.82
2019-05-01T15:23:54.743Z,18.00
2019-05-01T15:28:59.147Z,18.19
2019-05-01T15:34:03.813Z,18.21
2019-05-01T15:39:11.515Z,18.04
2019-05-01T15:44:19.989Z,18.04
2019-05-01T15:49:24.353Z,18.01
2019-05-01T15:54:28.769Z,17.95
2019-05-01T15:59:33.288Z,17.63
2019-05-01T16:04:37.758Z,17.72
2019-05-01T16:09:44.212Z,17.73
2019-05-01T16:14:53.307Z,17.72
2019-05-01T16:19:57.697Z,17.71
2019-05-01T16:25:02.206Z,17.58
2019-05-01T16:30:07.767Z,17.43
2019-05-01T16:35:23.080Z,17.45
2019-05-01T16:40:29.552Z,17.35
2019-05-01T16:45:34.054Z,17.27
2019-05-01T16:50:38.447Z,17.22
2019-05-01T16:55:43.544Z,17.18
2019-05-01T17:00:56.658Z,17.11
2019-05-01T17:06:02.744Z,17.06
2019-05-01T17:11:07.908Z,17.05
2019-05-01T17:16:12.255Z,17.03
2019-05-01T17:21:16.794Z,17.51
2019-05-01T17:26:21.687Z,17.50
2019-05-01T17:31:27.969Z,16.94
2019-05-01T17:36:32.342Z,16.86
2019-05-01T17:41:36.912Z,16.73
2019-05-01T17:46:41.942Z,16.66
2019-05-01T17:51:47.623Z,16.59
2019-05-01T17:56:53.840Z,16.54
2019-05-01T18:01:59.905Z,16.45
2019-05-01T18:07:04.288Z,16.43
2019-05-01T18:12:08.624Z,16.30
2019-05-01T18:17:13.055Z,16.23
2019-05-01T18:22:19.089Z,16.00
2019-05-01T18:27:41.601Z,15.98
2019-05-01T18:32:51.954Z,15.88
2019-05-01T18:37:56.655Z,15.71
2019-05-01T18:43:01.081Z,15.67
2019-05-01T18:48:06.584Z,15.68
2019-05-01T18:53:11.434Z,15.60
2019-05-01T18:58:17.265Z,15.50
2019-05-01T19:03:22.538Z,15.45
2019-05-01T19:08:28.079Z,15.38
2019-05-01T19:13:32.512Z,15.31
2019-05-01T19:18:36.962Z,15.26
2019-05-01T19:23:41.679Z,15.15
2019-05-01T19:28:47.089Z,15.04
2019-05-01T19:33:51.520Z,15.01
2019-05-01T19:38:55.898Z,14.96
2019-05-01T19:44:00.384Z,14.92
2019-05-01T19:49:04.842Z,14.88
2019-05-01T19:54:09.266Z,14.84
2019-05-01T19:59:13.653Z,14.77
2019-05-01T20:04:18.073Z,14.66
2019-05-01T20:09:23.680Z,14.69
2019-05-01T20:14:28.014Z,14.58
2019-05-01T20:19:33.032Z,14.48
2019-05-01T20:24:39.817Z,14.31
2019-05-01T20:29:43.504Z,14.55
2019-05-01T20:34:52.341Z,14.40
2019-05-01T20:39:53.949Z,14.41
2019-05-01T20:45:05.520Z,14.43
2019-05-01T20:50:07.313Z,14.27
2019-05-01T20:55:11.822Z,14.24
2019-05-01T21:00:18.608Z,14.27
2019-05-01T21:05:27.783Z,14.21
2019-05-01T21:10:34.647Z,14.37
2019-05-01T21:15:39.872Z,14.16
2019-05-01T21:20:44.225Z,14.21
2019-05-01T21:25:48.622Z,14.16
2019-05-01T21:30:54.360Z,14.06
2019-05-01T21:35:59.505Z,13.89
2019-05-01T21:41:05.042Z,13.64
2019-05-01T21:46:09.396Z,13.60
2019-05-01T21:51:13.792Z,13.75
2019-05-01T21:56:18.196Z,13.46
2019-05-01T22:01:22.558Z,13.47
2019-05-01T22:06:27.240Z,13.46
2019-05-01T22:11:33.090Z,13.45
2019-05-01T22:16:37.705Z,13.53
2019-05-01T22:22:02.061Z,13.48
2019-05-01T22:27:16.968Z,13.46
2019-05-01T22:32:32.400Z,13.30
2019-05-01T22:37:34.908Z,13.26
2019-05-01T22:42:39.374Z,13.15
2019-05-01T22:47:46.013Z,13.11
2019-05-01T22:52:50.946Z,13.13
2019-05-01T22:57:55.344Z,13.04
2019-05-01T23:03:05.624Z,12.80
2019-05-01T23:08:07.518Z,12.91
2019-05-01T23:13:12.088Z,12.90
2019-05-01T23:18:17.466Z,12.75
2019-05-01T23:23:21.826Z,12.70
2019-05-01T23:28:26.184Z,12.56
2019-05-01T23:33:30.539Z,12.47
2019-05-01T23:38:34.915Z,12.28
2019-05-01T23:43:39.338Z,12.20
2019-05-01T23:48:43.687Z,12.26
2019-05-01T23:53:49.328Z,12.24
2019-05-01T23:58:53.842Z,12.36
